createdAt,value
2023-04-07T00:01:17.227Z,2.50
2023-04-07T00:03:45.067Z,2.57
2023-04-07T00:06:14.532Z,2.13
2023-04-07T00:08:42.264Z,2.50
2023-04-07T00:11:09.975Z,2.60
2023-04-07T00:13:37.692Z,2.30
2023-04-07T00:16:05.522Z,2.33
2023-04-07T00:18:33.334Z,2.10
2023-04-07T00:21:01.063Z,2.20
2023-04-07T00:23:30.372Z,2.03
2023-04-07T00:25:58.178Z,1.93
2023-04-07T00:28:26.094Z,2.13
2023-04-07T00:30:53.818Z,2.00
2023-04-07T00:33:21.593Z,1.73
2023-04-07T00:35:49.442Z,1.80
2023-04-07T00:38:17.266Z,2.20
2023-04-07T00:40:46.473Z,1.97
2023-04-07T00:43:14.176Z,1.90
2023-04-07T00:45:42.141Z,1.80
2023-04-07T00:48:11.790Z,2.13
2023-04-07T00:50:39.769Z,2.27
2023-04-07T00:53:08.108Z,1.80
2023-04-07T00:55:36.072Z,1.93
2023-04-07T00:58:05.822Z,1.87
2023-04-07T01:00:37.168Z,2.10
2023-04-07T01:03:10.678Z,1.83
2023-04-07T01:05:44.066Z,2.13
2023-04-07T01:08:18.623Z,1.90
2023-04-07T01:10:53.824Z,1.67
2023-04-07T01:13:29.585Z,1.83
2023-04-07T01:16:00.708Z,1.77
2023-04-07T01:18:32.876Z,1.77
2023-04-07T01:21:05.540Z,1.90
2023-04-07T01:23:49.458Z,1.57
2023-04-07T01:26:22.896Z,2.00
2023-04-07T01:29:27.358Z,2.07
2023-04-07T01:31:59.462Z,1.90
2023-04-07T01:34:28.391Z,1.80
2023-04-07T01:36:57.206Z,1.67
2023-04-07T01:39:26.161Z,1.77
2023-04-07T01:41:55.325Z,1.53
2023-04-07T01:44:27.232Z,2.00
2023-04-07T01:46:56.570Z,2.23
2023-04-07T01:49:26.346Z,1.93
2023-04-07T01:51:55.806Z,1.90
2023-04-07T01:54:24.580Z,1.90
2023-04-07T01:56:52.329Z,2.07
2023-04-07T01:59:20.094Z,2.03
2023-04-07T02:01:49.709Z,1.87
2023-04-07T02:04:22.734Z,2.23
2023-04-07T02:06:54.290Z,2.20
2023-04-07T02:09:23.720Z,2.00
2023-04-07T02:11:53.469Z,2.13
2023-04-07T02:14:24.358Z,1.97
2023-04-07T02:16:54.836Z,2.07
2023-04-07T02:19:23.009Z,2.80
2023-04-07T02:21:53.598Z,2.10
2023-04-07T02:24:22.738Z,2.70
2023-04-07T02:26:50.668Z,2.90
2023-04-07T02:29:18.362Z,2.57
2023-04-07T02:31:46.453Z,2.20
2023-04-07T02:34:15.759Z,2.07
2023-04-07T02:36:43.582Z,2.73
2023-04-07T02:39:11.594Z,2.60
2023-04-07T02:41:39.302Z,2.27
2023-04-07T02:44:07.167Z,1.97
2023-04-07T02:46:35.251Z,2.20
2023-04-07T02:49:03.250Z,2.20
2023-04-07T02:51:32.494Z,2.07
2023-04-07T02:54:00.439Z,1.90
2023-04-07T02:56:28.177Z,2.00
2023-04-07T02:58:56.062Z,1.43
2023-04-07T03:01:23.856Z,1.20
2023-04-07T03:03:52.102Z,1.40
2023-04-07T03:06:20.185Z,1.10
2023-04-07T03:08:49.241Z,1.40
2023-04-07T03:11:17.190Z,1.00
2023-04-07T03:13:44.945Z,1.50
2023-04-07T03:16:12.730Z,1.40
2023-04-07T03:18:40.455Z,1.70
2023-04-07T03:21:08.251Z,1.43
2023-04-07T03:23:36.263Z,1.70
2023-04-07T03:26:05.748Z,1.70
2023-04-07T03:28:33.484Z,1.10
2023-04-07T03:31:01.675Z,1.30
2023-04-07T03:33:29.563Z,1.20
2023-04-07T03:35:57.522Z,1.10
2023-04-07T03:38:25.406Z,1.37
2023-04-07T03:40:53.210Z,1.30
2023-04-07T03:43:22.826Z,1.73
2023-04-07T03:45:50.634Z,1.30
2023-04-07T03:48:18.468Z,1.53
2023-04-07T03:50:46.977Z,1.50
2023-04-07T03:53:16.505Z,1.30
2023-04-07T03:55:44.689Z,1.60
2023-04-07T03:58:12.541Z,1.77
2023-04-07T04:00:41.720Z,1.77
2023-04-07T04:03:09.738Z,2.00
2023-04-07T04:05:37.693Z,1.40
2023-04-07T04:08:05.968Z,1.50
2023-04-07T04:10:33.736Z,1.50
2023-04-07T04:13:03.698Z,1.70
2023-04-07T04:15:31.478Z,2.00
2023-04-07T04:18:00.705Z,1.97
2023-04-07T04:20:28.456Z,1.83
2023-04-07T04:22:56.355Z,1.90
2023-04-07T04:25:24.420Z,2.10
2023-04-07T04:27:52.235Z,1.87
2023-04-07T04:30:20.051Z,2.10
2023-04-07T04:32:47.790Z,2.00
2023-04-07T04:35:16.923Z,1.50
2023-04-07T04:37:44.688Z,1.70
2023-04-07T04:40:13.617Z,1.70
2023-04-07T04:42:41.626Z,1.63
2023-04-07T04:45:10.375Z,1.97
2023-04-07T04:47:39.037Z,1.67
2023-04-07T04:50:07.630Z,1.40
2023-04-07T04:52:36.744Z,1.40
2023-04-07T04:55:04.828Z,1.13
2023-04-07T04:57:34.749Z,1.33
2023-04-07T05:00:03.007Z,1.13
2023-04-07T05:02:30.901Z,1.30
2023-04-07T05:04:58.851Z,0.90
2023-04-07T05:07:27.897Z,1.33
2023-04-07T05:09:57.062Z,0.90
2023-04-07T05:12:24.860Z,1.10
2023-04-07T05:14:52.659Z,1.10
2023-04-07T05:17:20.517Z,1.47
2023-04-07T05:19:48.347Z,0.90
2023-04-07T05:22:16.396Z,0.70
2023-04-07T05:24:44.152Z,0.90
2023-04-07T05:27:15.433Z,0.87
2023-04-07T05:29:43.278Z,1.30
2023-04-07T05:32:11.298Z,1.00
2023-04-07T05:34:39.127Z,1.30
2023-04-07T05:37:06.814Z,1.37
2023-04-07T05:39:34.644Z,1.33
2023-04-07T05:42:03.052Z,0.83
2023-04-07T05:44:32.241Z,1.30
2023-04-07T05:47:00.005Z,1.27
2023-04-07T05:49:27.826Z,1.07
2023-04-07T05:51:55.591Z,1.20
2023-04-07T05:54:23.388Z,1.40
2023-04-07T05:56:51.268Z,1.20
2023-04-07T05:59:18.987Z,0.80
2023-04-07T06:01:48.117Z,1.20
2023-04-07T06:04:15.973Z,0.97
2023-04-07T06:06:43.752Z,1.27
2023-04-07T06:09:11.499Z,0.90
2023-04-07T06:11:39.260Z,1.33
2023-04-07T06:14:07.050Z,0.97
2023-04-07T06:16:34.838Z,0.87
2023-04-07T06:19:03.920Z,1.50
2023-04-07T06:21:32.054Z,0.87
2023-04-07T06:23:59.990Z,0.90
2023-04-07T06:26:28.281Z,1.10
2023-04-07T06:28:56.123Z,1.33
2023-04-07T06:31:23.879Z,1.33
2023-04-07T06:33:51.729Z,1.23
2023-04-07T06:36:21.832Z,1.40
2023-04-07T06:38:49.805Z,1.17
2023-04-07T06:41:17.890Z,1.00
2023-04-07T06:43:46.433Z,1.20
2023-04-07T06:46:14.435Z,1.10
2023-04-07T06:48:42.258Z,1.43
2023-04-07T06:51:10.005Z,1.13
2023-04-07T06:53:39.247Z,1.30
2023-04-07T06:56:09.216Z,1.10
2023-04-07T06:58:37.580Z,1.10
2023-04-07T07:01:06.472Z,1.23
2023-04-07T07:03:34.947Z,1.10
2023-04-07T07:06:03.108Z,1.17
2023-04-07T07:08:31.219Z,0.83
2023-04-07T07:11:00.678Z,1.50
2023-04-07T07:13:29.685Z,1.17
2023-04-07T07:15:57.667Z,1.10
2023-04-07T07:18:25.687Z,1.67
2023-04-07T07:20:53.470Z,1.10
2023-04-07T07:23:21.305Z,1.70
2023-04-07T07:25:49.002Z,0.90
2023-04-07T07:28:18.515Z,1.30
2023-04-07T07:30:46.325Z,1.27
2023-04-07T07:33:14.213Z,1.60
2023-04-07T07:35:42.249Z,1.20
2023-04-07T07:38:10.052Z,1.30
2023-04-07T07:40:37.739Z,1.30
2023-04-07T07:43:06.128Z,1.33
2023-04-07T07:45:35.340Z,1.63
2023-04-07T07:48:03.202Z,1.43
2023-04-07T07:50:31.371Z,1.30
2023-04-07T07:52:59.398Z,1.03
2023-04-07T07:55:27.185Z,1.40
2023-04-07T07:57:54.895Z,1.30
2023-04-07T08:00:24.134Z,1.07
2023-04-07T08:02:53.521Z,1.10
2023-04-07T08:05:21.705Z,1.20
2023-04-07T08:07:50.432Z,1.10
2023-04-07T08:10:20.259Z,1.50
2023-04-07T08:12:47.958Z,1.00
2023-04-07T08:15:15.707Z,1.20
2023-04-07T08:17:43.492Z,0.80
2023-04-07T08:20:13.293Z,0.80
2023-04-07T08:22:41.376Z,1.00
2023-04-07T08:25:09.477Z,1.10
2023-04-07T08:27:37.265Z,0.87
2023-04-07T08:30:07.418Z,0.83
2023-04-07T08:32:39.289Z,1.10
2023-04-07T08:35:07.765Z,0.93
2023-04-07T08:37:37.110Z,0.93
2023-04-07T08:40:05.833Z,1.40
2023-04-07T08:42:35.084Z,1.10
2023-04-07T08:45:06.377Z,1.00
2023-04-07T08:47:35.593Z,1.73
2023-04-07T08:50:04.967Z,0.83
2023-04-07T08:52:41.292Z,1.10
2023-04-07T08:55:10.878Z,1.10
2023-04-07T08:57:38.718Z,1.10
2023-04-07T09:00:07.676Z,1.30
2023-04-07T09:02:37.037Z,0.77
2023-04-07T09:05:06.875Z,1.10
2023-04-07T09:07:37.232Z,0.87
2023-04-07T09:10:06.174Z,1.10
2023-04-07T09:12:35.031Z,1.47
2023-04-07T09:15:02.947Z,0.97
2023-04-07T09:17:31.274Z,1.00
2023-04-07T09:20:00.818Z,0.80
2023-04-07T09:22:42.403Z,0.90
2023-04-07T09:25:15.818Z,0.80
2023-04-07T09:27:55.624Z,1.07
2023-04-07T09:30:24.221Z,1.20
2023-04-07T09:32:52.334Z,1.30
2023-04-07T09:35:20.170Z,0.77
2023-04-07T09:38:02.794Z,1.53
2023-04-07T09:40:30.560Z,1.00
2023-04-07T09:42:59.522Z,1.20
2023-04-07T09:45:34.665Z,1.40
2023-04-07T09:48:07.386Z,1.17
2023-04-07T09:50:36.775Z,1.00
2023-04-07T09:53:06.027Z,1.00
2023-04-07T09:55:35.041Z,0.90
2023-04-07T09:58:06.365Z,1.33
2023-04-07T10:00:34.458Z,1.00
2023-04-07T10:03:03.636Z,1.50
2023-04-07T10:05:32.707Z,1.47
2023-04-07T10:08:03.541Z,1.10
2023-04-07T10:10:32.831Z,0.60
2023-04-07T10:13:00.786Z,1.20
2023-04-07T10:15:28.742Z,1.30
2023-04-07T10:17:57.334Z,1.50
2023-04-07T10:20:26.237Z,1.00
2023-04-07T10:22:57.001Z,2.17
2023-04-07T10:25:26.775Z,1.23
2023-04-07T10:28:00.812Z,0.90
2023-04-07T10:30:31.617Z,1.00
2023-04-07T10:33:00.351Z,1.10
2023-04-07T10:35:28.499Z,1.10
2023-04-07T10:38:14.269Z,0.90
2023-04-07T10:40:43.075Z,1.47
2023-04-07T10:43:12.528Z,0.80
2023-04-07T10:46:00.902Z,1.10
2023-04-07T10:48:33.989Z,1.30
2023-04-07T10:51:18.923Z,1.27
2023-04-07T10:54:17.343Z,1.17
2023-04-07T10:57:14.211Z,0.97
2023-04-07T10:59:59.267Z,1.87
2023-04-07T11:02:36.877Z,1.33
2023-04-07T11:05:05.343Z,0.83
2023-04-07T11:07:51.022Z,1.10
2023-04-07T11:10:19.607Z,1.30
2023-04-07T11:13:03.685Z,0.63
2023-04-07T11:15:34.116Z,1.00
2023-04-07T11:18:16.072Z,0.93
2023-04-07T11:20:49.373Z,0.80
2023-04-07T11:23:18.173Z,1.00
2023-04-07T11:25:47.484Z,0.83
2023-04-07T11:28:16.063Z,1.07
2023-04-07T11:30:51.735Z,1.33
2023-04-07T11:33:21.091Z,1.27
2023-04-07T11:35:56.832Z,1.13
2023-04-07T11:38:27.292Z,0.90
2023-04-07T11:40:55.905Z,0.70
2023-04-07T11:43:25.756Z,1.07
2023-04-07T11:46:08.870Z,0.80
2023-04-07T11:48:37.651Z,1.10
2023-04-07T11:51:07.138Z,0.80
2023-04-07T11:53:38.001Z,1.00
2023-04-07T11:56:07.652Z,0.90
2023-04-07T11:58:35.648Z,0.87
2023-04-07T12:01:08.759Z,1.03
2023-04-07T12:03:38.592Z,0.80
2023-04-07T12:06:07.236Z,0.60
2023-04-07T12:08:39.452Z,1.17
2023-04-07T12:11:08.137Z,1.00
2023-04-07T12:13:36.457Z,1.00
2023-04-07T12:16:04.525Z,1.07
2023-04-07T12:18:32.442Z,0.93
2023-04-07T12:21:02.062Z,0.80
2023-04-07T12:23:30.100Z,0.70
2023-04-07T12:25:57.800Z,0.97
2023-04-07T12:28:25.762Z,0.80
2023-04-07T12:30:53.621Z,0.80
2023-04-07T12:33:21.420Z,0.83
2023-04-07T12:35:49.260Z,1.03
2023-04-07T12:38:18.499Z,0.60
2023-04-07T12:40:46.417Z,1.27
2023-04-07T12:43:14.190Z,0.83
2023-04-07T12:45:42.188Z,0.67
2023-04-07T12:48:10.384Z,0.87
2023-04-07T12:50:38.268Z,1.10
2023-04-07T12:53:06.109Z,0.90
2023-04-07T12:55:35.708Z,0.90
2023-04-07T12:58:03.624Z,0.90
2023-04-07T13:00:31.714Z,1.00
2023-04-07T13:02:59.718Z,2.00
2023-04-07T13:05:27.617Z,0.67
2023-04-07T13:07:55.408Z,0.90
2023-04-07T13:10:23.254Z,0.70
2023-04-07T13:12:52.430Z,0.90
2023-04-07T13:15:20.313Z,0.67
2023-04-07T13:17:48.442Z,0.70
2023-04-07T13:20:19.898Z,1.20
2023-04-07T13:22:52.008Z,1.47
2023-04-07T13:25:28.701Z,0.93
2023-04-07T13:27:58.029Z,1.30
2023-04-07T13:30:25.836Z,1.10
2023-04-07T13:32:53.708Z,0.90
2023-04-07T13:35:21.650Z,1.43
2023-04-07T13:37:49.603Z,1.27
2023-04-07T13:40:17.482Z,1.00
2023-04-07T13:42:45.357Z,1.57
2023-04-07T13:45:14.546Z,1.10
2023-04-07T13:47:42.324Z,1.20
2023-04-07T13:50:10.941Z,1.33
2023-04-07T13:52:38.783Z,1.43
2023-04-07T13:55:07.475Z,1.10
2023-04-07T13:57:35.301Z,1.57
2023-04-07T14:00:04.723Z,1.50
2023-04-07T14:02:34.251Z,1.30
2023-04-07T14:05:02.170Z,1.20
2023-04-07T14:07:29.935Z,1.40
2023-04-07T14:09:58.533Z,1.50
2023-04-07T14:12:26.681Z,1.40
2023-04-07T14:14:56.766Z,1.47
2023-04-07T14:17:25.060Z,1.50
2023-04-07T14:19:54.295Z,1.23
2023-04-07T14:22:23.264Z,1.20
2023-04-07T14:24:51.392Z,1.33
2023-04-07T14:27:21.050Z,1.43
2023-04-07T14:29:49.113Z,1.30
2023-04-07T14:32:17.332Z,1.23
2023-04-07T14:34:45.122Z,0.97
2023-04-07T14:37:16.178Z,1.57
2023-04-07T14:39:55.350Z,1.40
2023-04-07T14:42:27.427Z,1.23
2023-04-07T14:44:55.195Z,1.57
2023-04-07T14:47:22.919Z,1.60
2023-04-07T14:49:53.336Z,1.40
2023-04-07T14:52:22.970Z,1.20
2023-04-07T14:54:50.749Z,1.33
2023-04-07T14:57:18.512Z,1.60
2023-04-07T14:59:46.458Z,1.30
2023-04-07T15:02:14.302Z,1.10
2023-04-07T15:04:42.240Z,1.30
2023-04-07T15:07:10.233Z,1.60
2023-04-07T15:09:39.568Z,1.17
2023-04-07T15:12:07.434Z,0.70
2023-04-07T15:14:35.177Z,2.10
2023-04-07T15:17:02.902Z,1.80
2023-04-07T15:19:31.220Z,1.33
2023-04-07T15:21:59.046Z,1.00
2023-04-07T15:24:27.056Z,1.37
2023-04-07T15:26:56.363Z,1.10
2023-04-07T15:29:24.122Z,1.20
2023-04-07T15:31:51.975Z,1.40
2023-04-07T15:34:19.772Z,1.10
2023-04-07T15:36:47.571Z,1.10
2023-04-07T15:39:16.983Z,1.40
2023-04-07T15:41:44.731Z,1.50
2023-04-07T15:44:18.869Z,1.67
2023-04-07T15:46:46.952Z,1.63
2023-04-07T15:49:19.968Z,1.60
2023-04-07T15:51:47.903Z,1.73
2023-04-07T15:54:15.815Z,1.63
2023-04-07T15:56:43.539Z,1.30
2023-04-07T15:59:11.310Z,1.27
2023-04-07T16:01:40.624Z,1.20
2023-04-07T16:04:08.619Z,1.90
2023-04-07T16:06:36.625Z,1.60
2023-04-07T16:09:05.391Z,1.50
2023-04-07T16:11:33.190Z,1.40
2023-04-07T16:14:00.901Z,1.10
2023-04-07T16:16:28.761Z,1.57
2023-04-07T16:18:58.030Z,1.53
2023-04-07T16:21:27.327Z,1.60
2023-04-07T16:23:55.172Z,1.70
2023-04-07T16:26:23.022Z,1.50
2023-04-07T16:28:50.871Z,1.30
2023-04-07T16:31:18.893Z,1.77
2023-04-07T16:33:46.828Z,1.50
2023-04-07T16:36:16.176Z,1.77
2023-04-07T16:38:44.104Z,1.73
2023-04-07T16:41:11.922Z,1.90
2023-04-07T16:43:39.847Z,2.13
2023-04-07T16:46:07.600Z,2.40
2023-04-07T16:48:37.740Z,1.90
2023-04-07T16:51:05.837Z,1.40
2023-04-07T16:53:35.056Z,1.60
2023-04-07T16:56:03.322Z,2.03
2023-04-07T16:58:31.222Z,1.90
2023-04-07T17:00:59.009Z,1.90
2023-04-07T17:03:27.032Z,1.43
2023-04-07T17:05:55.126Z,2.40
2023-04-07T17:08:23.059Z,2.07
2023-04-07T17:10:52.179Z,2.07
2023-04-07T17:13:19.982Z,1.73
2023-04-07T17:15:47.804Z,1.77
2023-04-07T17:18:15.840Z,1.97
2023-04-07T17:20:43.740Z,2.20
2023-04-07T17:23:11.594Z,1.50
2023-04-07T17:25:39.381Z,1.93
2023-04-07T17:28:08.433Z,2.50
2023-04-07T17:30:37.289Z,2.40
2023-04-07T17:33:05.239Z,2.40
2023-04-07T17:35:33.055Z,2.40
2023-04-07T17:38:02.825Z,2.13
2023-04-07T17:40:30.642Z,1.60
2023-04-07T17:42:58.895Z,2.40
2023-04-07T17:45:28.132Z,2.23
2023-04-07T17:47:57.283Z,2.07
2023-04-07T17:50:25.066Z,1.53
2023-04-07T17:52:53.472Z,1.70
2023-04-07T17:55:21.288Z,2.67
2023-04-07T17:57:49.115Z,2.07
2023-04-07T18:00:17.300Z,2.17
2023-04-07T18:02:46.489Z,2.03
2023-04-07T18:05:14.350Z,1.90
2023-04-07T18:07:42.120Z,1.93
2023-04-07T18:10:11.064Z,2.20
2023-04-07T18:12:39.567Z,2.27
2023-04-07T18:15:08.580Z,2.40
2023-04-07T18:17:36.363Z,2.17
2023-04-07T18:20:06.395Z,2.70
2023-04-07T18:22:34.285Z,2.83
2023-04-07T18:25:02.061Z,2.53
2023-04-07T18:27:29.943Z,2.73
2023-04-07T18:29:57.762Z,3.33
2023-04-07T18:32:25.617Z,2.93
2023-04-07T18:34:54.929Z,3.17
2023-04-07T18:37:24.342Z,2.77
2023-04-07T18:39:53.838Z,3.33
2023-04-07T18:42:21.627Z,3.17
2023-04-07T18:44:49.488Z,3.20
2023-04-07T18:47:17.483Z,3.00
2023-04-07T18:49:45.315Z,4.00
2023-04-07T18:52:13.042Z,3.07
2023-04-07T18:54:42.116Z,3.27
2023-04-07T18:57:09.814Z,2.90
2023-04-07T18:59:37.712Z,2.37
2023-04-07T19:02:05.626Z,2.77
2023-04-07T19:04:33.536Z,3.40
2023-04-07T19:07:01.262Z,3.43
2023-04-07T19:09:29.665Z,3.60
2023-04-07T19:11:59.518Z,3.07
2023-04-07T19:14:27.229Z,2.80
2023-04-07T19:16:55.089Z,3.10
2023-04-07T19:19:22.893Z,3.40
2023-04-07T19:21:50.828Z,4.20
2023-04-07T19:24:18.608Z,4.23
2023-04-07T19:26:46.673Z,2.90
2023-04-07T19:29:16.407Z,3.07
2023-04-07T19:31:44.630Z,3.17
2023-04-07T19:34:12.546Z,3.43
2023-04-07T19:36:40.269Z,3.60
2023-04-07T19:39:08.117Z,3.27
2023-04-07T19:41:35.883Z,3.63
2023-04-07T19:44:03.795Z,4.40
2023-04-07T19:46:35.176Z,3.97
2023-04-07T19:49:02.881Z,3.23
2023-04-07T19:51:31.177Z,3.83
2023-04-07T19:53:59.409Z,3.80
2023-04-07T19:56:27.436Z,3.80
2023-04-07T19:58:55.417Z,3.63
2023-04-07T20:01:23.435Z,3.90
2023-04-07T20:03:52.818Z,3.80
2023-04-07T20:06:24.912Z,4.20
2023-04-07T20:08:52.738Z,3.57
2023-04-07T20:11:21.678Z,3.40
2023-04-07T20:13:50.146Z,3.37
2023-04-07T20:16:18.151Z,3.30
2023-04-07T20:18:46.279Z,3.53
2023-04-07T20:21:16.326Z,2.90
2023-04-07T20:23:44.257Z,3.23
2023-04-07T20:26:12.072Z,3.60
2023-04-07T20:28:39.882Z,3.97
2023-04-07T20:31:07.700Z,4.40
2023-04-07T20:33:35.894Z,3.87
2023-04-07T20:36:03.896Z,3.57
2023-04-07T20:38:33.404Z,4.20
2023-04-07T20:41:01.517Z,3.57
2023-04-07T20:43:29.322Z,3.63
2023-04-07T20:45:58.078Z,3.80
2023-04-07T20:48:26.719Z,3.50
2023-04-07T20:50:54.583Z,3.83
2023-04-07T20:53:23.497Z,3.50
2023-04-07T20:55:52.730Z,4.30
2023-04-07T20:58:20.841Z,3.70
2023-04-07T21:00:48.828Z,3.47
2023-04-07T21:03:16.696Z,3.60
2023-04-07T21:05:45.922Z,3.50
2023-04-07T21:08:14.796Z,3.30
2023-04-07T21:10:42.910Z,3.70
2023-04-07T21:13:12.227Z,3.77
2023-04-07T21:15:42.337Z,3.90
2023-04-07T21:18:10.244Z,3.80
2023-04-07T21:20:38.236Z,3.73
2023-04-07T21:23:07.746Z,3.50
2023-04-07T21:25:35.814Z,4.23
2023-04-07T21:28:03.671Z,4.47
2023-04-07T21:30:33.212Z,3.93
2023-04-07T21:33:01.185Z,3.73
2023-04-07T21:35:29.530Z,4.20
2023-04-07T21:37:57.598Z,4.27
2023-04-07T21:40:25.544Z,3.60
2023-04-07T21:42:53.316Z,3.33
2023-04-07T21:45:21.906Z,3.97
2023-04-07T21:47:52.209Z,4.77
2023-04-07T21:50:20.173Z,4.77
2023-04-07T21:52:50.659Z,4.00
2023-04-07T21:55:18.923Z,3.97
2023-04-07T21:57:46.755Z,4.27
2023-04-07T22:00:16.510Z,4.43
2023-04-07T22:02:45.237Z,4.30
2023-04-07T22:05:16.626Z,3.70
2023-04-07T22:07:45.433Z,4.20
2023-04-07T22:10:13.543Z,4.67
2023-04-07T22:13:04.165Z,4.03
2023-04-07T22:15:32.099Z,4.37
2023-04-07T22:18:00.059Z,3.43
2023-04-07T22:20:29.273Z,3.80
2023-04-07T22:22:57.709Z,4.40
2023-04-07T22:25:26.129Z,4.13
2023-04-07T22:27:54.097Z,4.37
2023-04-07T22:30:24.395Z,4.50
2023-04-07T22:32:52.441Z,4.40
2023-04-07T22:35:20.349Z,3.90
2023-04-07T22:37:49.517Z,3.90
2023-04-07T22:40:17.413Z,3.83
2023-04-07T22:42:45.291Z,4.27
2023-04-07T22:45:13.027Z,3.97
2023-04-07T22:47:42.319Z,4.30
2023-04-07T22:50:11.733Z,3.30
2023-04-07T22:52:39.573Z,4.20
2023-04-07T22:55:10.055Z,4.20
2023-04-07T22:57:37.874Z,4.40
2023-04-07T23:00:06.699Z,3.80
2023-04-07T23:02:34.555Z,4.03
2023-04-07T23:05:02.393Z,4.77
2023-04-07T23:07:30.126Z,4.10
2023-04-07T23:09:58.551Z,4.00
2023-04-07T23:12:27.741Z,4.40
2023-04-07T23:14:55.567Z,4.10
2023-04-07T23:17:23.428Z,4.93
2023-04-07T23:19:51.174Z,4.50
2023-04-07T23:22:18.970Z,5.60
2023-04-07T23:24:47.037Z,5.57
2023-04-07T23:27:14.817Z,6.50
2023-04-07T23:29:43.893Z,5.50
2023-04-07T23:32:12.098Z,5.90
2023-04-07T23:34:40.027Z,5.90
2023-04-07T23:37:07.878Z,6.07
2023-04-07T23:39:35.737Z,5.60
2023-04-07T23:42:03.538Z,5.57
2023-04-07T23:44:31.476Z,6.70
2023-04-07T23:47:00.595Z,6.30
2023-04-07T23:49:29.164Z,6.57
2023-04-07T23:51:56.939Z,6.67
2023-04-07T23:54:24.786Z,6.47
2023-04-07T23:56:52.492Z,6.10
2023-04-07T23:59:20.245Z,6.07
